createdAt,value
2023-04-14T00:00:37.293Z,-0.39
2023-04-14T00:03:05.446Z,-0.52
2023-04-14T00:05:33.448Z,-0.47
2023-04-14T00:08:00.834Z,-0.43
2023-04-14T00:10:28.174Z,-0.45
2023-04-14T00:12:54.888Z,-0.56
2023-04-14T00:15:21.800Z,-0.50
2023-04-14T00:17:48.715Z,-0.47
2023-04-14T00:20:17.043Z,-0.54
2023-04-14T00:22:43.893Z,-0.46
2023-04-14T00:25:10.729Z,-0.57
2023-04-14T00:27:37.534Z,-0.68
2023-04-14T00:30:04.888Z,-0.76
2023-04-14T00:32:31.644Z,-0.77
2023-04-14T00:34:58.494Z,-0.76
2023-04-14T00:37:26.700Z,-0.66
2023-04-14T00:39:53.496Z,-0.60
2023-04-14T00:42:20.330Z,-0.58
2023-04-14T00:44:47.205Z,-0.57
2023-04-14T00:47:14.027Z,-0.57
2023-04-14T00:49:41.370Z,-0.58
2023-04-14T00:52:08.351Z,-0.56
2023-04-14T00:54:37.752Z,-0.51
2023-04-14T00:57:05.481Z,-0.46
2023-04-14T00:59:32.394Z,-0.53
2023-04-14T01:02:00.321Z,-0.54
2023-04-14T01:04:36.839Z,-0.54
2023-04-14T01:07:12.271Z,-0.57
2023-04-14T01:09:40.528Z,-0.52
2023-04-14T01:12:18.515Z,-0.53
2023-04-14T01:14:50.705Z,-0.49
2023-04-14T01:17:21.940Z,-0.48
2023-04-14T01:20:10.662Z,-0.47
2023-04-14T01:22:41.700Z,-0.49
2023-04-14T01:26:08.730Z,-0.44
2023-04-14T01:28:53.125Z,-0.58
2023-04-14T01:31:25.390Z,-0.67
2023-04-14T01:33:57.603Z,-0.65
2023-04-14T01:36:30.403Z,-0.66
2023-04-14T01:38:58.425Z,-0.66
2023-04-14T01:41:28.553Z,-0.68
2023-04-14T01:43:57.629Z,-0.58
2023-04-14T01:46:25.850Z,-0.67
2023-04-14T01:48:53.313Z,-0.68
2023-04-14T01:51:22.022Z,-0.78
2023-04-14T01:53:52.948Z,-0.74
2023-04-14T01:56:21.363Z,-0.77
2023-04-14T01:58:49.221Z,-0.78
2023-04-14T02:01:16.863Z,-0.74
2023-04-14T02:03:46.780Z,-0.72
2023-04-14T02:06:14.237Z,-0.75
2023-04-14T02:08:42.110Z,-0.75
2023-04-14T02:11:12.640Z,-0.70
2023-04-14T02:13:43.201Z,-0.56
2023-04-14T02:16:11.317Z,-0.62
2023-04-14T02:18:40.390Z,-0.61
2023-04-14T02:21:09.521Z,-0.70
2023-04-14T02:23:36.293Z,-0.63
2023-04-14T02:26:10.808Z,-0.53
2023-04-14T02:28:45.873Z,-0.52
2023-04-14T02:31:15.693Z,-0.48
2023-04-14T02:33:44.277Z,-0.56
2023-04-14T02:36:18.055Z,-0.60
2023-04-14T02:38:48.053Z,-0.57
2023-04-14T02:41:22.524Z,-0.52
2023-04-14T02:43:53.805Z,-0.58
2023-04-14T02:46:23.715Z,-0.50
2023-04-14T02:48:53.611Z,-0.58
2023-04-14T02:51:23.797Z,-0.64
2023-04-14T02:53:50.661Z,-0.66
2023-04-14T02:56:18.832Z,-0.72
2023-04-14T02:58:46.775Z,-0.64
2023-04-14T03:01:15.674Z,-0.63
2023-04-14T03:03:43.254Z,-0.58
2023-04-14T03:06:11.697Z,-0.63
2023-04-14T03:08:40.511Z,-0.55
2023-04-14T03:11:08.347Z,-0.56
2023-04-14T03:13:37.433Z,-0.56
2023-04-14T03:16:06.092Z,-0.58
2023-04-14T03:18:34.341Z,-0.71
2023-04-14T03:21:01.687Z,-0.70
2023-04-14T03:23:31.828Z,-0.68
2023-04-14T03:26:01.109Z,-0.69
2023-04-14T03:28:30.893Z,-0.69
2023-04-14T03:31:00.437Z,-0.67
2023-04-14T03:33:30.814Z,-0.66
2023-04-14T03:35:59.627Z,-0.64
2023-04-14T03:38:27.696Z,-0.58
2023-04-14T03:40:57.324Z,-0.61
2023-04-14T03:43:27.425Z,-0.57
2023-04-14T03:45:54.273Z,-0.55
2023-04-14T03:48:21.948Z,-0.55
2023-04-14T03:50:51.436Z,-0.57
2023-04-14T03:53:19.539Z,-0.53
2023-04-14T03:55:48.252Z,-0.54
2023-04-14T03:58:16.632Z,-0.46
2023-04-14T04:00:45.181Z,-0.47
2023-04-14T04:03:13.515Z,-0.43
2023-04-14T04:05:41.242Z,-0.42
2023-04-14T04:08:09.525Z,-0.41
2023-04-14T04:10:37.724Z,-0.55
2023-04-14T04:13:09.044Z,-0.50
2023-04-14T04:15:37.820Z,-0.40
2023-04-14T04:18:07.344Z,-0.44
2023-04-14T04:20:36.243Z,-0.66
2023-04-14T04:23:05.910Z,-0.71
2023-04-14T04:25:35.146Z,-0.78
2023-04-14T04:28:04.995Z,-0.74
2023-04-14T04:30:32.313Z,-0.72
2023-04-14T04:33:01.848Z,-0.66
2023-04-14T04:35:30.498Z,-0.63
2023-04-14T04:37:58.746Z,-0.61
2023-04-14T04:40:25.592Z,-0.64
2023-04-14T04:42:52.354Z,-0.63
2023-04-14T04:45:35.548Z,-0.63
2023-04-14T04:48:02.449Z,-0.63
2023-04-14T04:50:30.662Z,-0.63
2023-04-14T04:52:57.455Z,-0.45
2023-04-14T04:55:24.215Z,-0.42
2023-04-14T04:57:51.017Z,-0.37
2023-04-14T05:00:18.782Z,-0.47
2023-04-14T05:02:45.563Z,-0.44
2023-04-14T05:05:12.398Z,-0.41
2023-04-14T05:07:40.505Z,-0.45
2023-04-14T05:10:08.432Z,-0.50
2023-04-14T05:12:35.286Z,-0.57
2023-04-14T05:15:02.111Z,-0.59
2023-04-14T05:17:29.046Z,-0.48
2023-04-14T05:19:55.946Z,-0.50
2023-04-14T05:22:22.747Z,-0.50
2023-04-14T05:24:51.509Z,-0.45
2023-04-14T05:27:18.324Z,-0.54
2023-04-14T05:29:45.112Z,-0.46
2023-04-14T05:32:11.900Z,-0.46
2023-04-14T05:34:38.619Z,-0.48
2023-04-14T05:37:05.422Z,-0.52
2023-04-14T05:39:32.297Z,-0.49
2023-04-14T05:42:00.577Z,-0.46
2023-04-14T05:44:27.322Z,-0.45
2023-04-14T05:46:54.070Z,-0.45
2023-04-14T05:49:20.891Z,-0.47
2023-04-14T05:51:47.736Z,-0.45
2023-04-14T05:54:14.464Z,-0.47
2023-04-14T05:56:41.272Z,-0.47
2023-04-14T05:59:09.457Z,-0.45
2023-04-14T06:01:36.292Z,-0.46
2023-04-14T06:04:03.691Z,-0.52
2023-04-14T06:06:30.809Z,-0.45
2023-04-14T06:08:57.545Z,-0.44
2023-04-14T06:11:24.272Z,-0.45
2023-04-14T06:13:51.014Z,-0.44
2023-04-14T06:16:19.223Z,-0.46
2023-04-14T06:18:45.984Z,-0.36
2023-04-14T06:21:12.794Z,-0.29
2023-04-14T06:23:39.494Z,-0.35
2023-04-14T06:26:06.258Z,-0.31
2023-04-14T06:28:33.029Z,-0.36
2023-04-14T06:30:59.854Z,-0.22
2023-04-14T06:33:27.969Z,-0.14
2023-04-14T06:35:54.746Z,-0.13
2023-04-14T06:38:21.509Z,-0.09
2023-04-14T06:40:48.286Z,-0.12
2023-04-14T06:43:15.098Z,-0.13
2023-04-14T06:45:41.843Z,-0.12
2023-04-14T06:48:08.662Z,0.02
2023-04-14T06:50:36.814Z,0.09
2023-04-14T06:53:03.625Z,0.10
2023-04-14T06:55:30.446Z,0.04
2023-04-14T06:57:57.184Z,0.18
2023-04-14T07:00:24.054Z,0.18
2023-04-14T07:02:50.851Z,0.17
2023-04-14T07:05:17.669Z,0.10
2023-04-14T07:07:45.772Z,0.09
2023-04-14T07:10:12.548Z,0.14
2023-04-14T07:12:39.311Z,0.18
2023-04-14T07:15:07.533Z,0.17
2023-04-14T07:17:35.890Z,0.26
2023-04-14T07:20:03.176Z,0.28
2023-04-14T07:22:29.937Z,0.35
2023-04-14T07:24:58.152Z,0.43
2023-04-14T07:27:25.008Z,0.54
2023-04-14T07:29:51.804Z,0.64
2023-04-14T07:32:18.706Z,0.73
2023-04-14T07:34:45.574Z,0.84
2023-04-14T07:37:12.406Z,0.93
2023-04-14T07:39:39.644Z,1.07
2023-04-14T07:42:07.927Z,1.16
2023-04-14T07:44:34.762Z,1.26
2023-04-14T07:47:01.686Z,1.34
2023-04-14T07:49:28.448Z,1.44
2023-04-14T07:51:55.220Z,1.53
2023-04-14T07:54:22.037Z,1.63
2023-04-14T07:56:48.981Z,1.74
2023-04-14T07:59:17.142Z,1.83
2023-04-14T08:01:44.011Z,1.93
2023-04-14T08:04:11.092Z,2.07
2023-04-14T08:06:37.995Z,2.24
2023-04-14T08:09:05.521Z,2.22
2023-04-14T08:11:33.578Z,2.27
2023-04-14T08:14:00.424Z,2.30
2023-04-14T08:16:28.591Z,2.37
2023-04-14T08:18:56.557Z,2.35
2023-04-14T08:21:24.678Z,2.26
2023-04-14T08:23:51.539Z,2.31
2023-04-14T08:26:18.452Z,2.26
2023-04-14T08:28:45.273Z,2.28
2023-04-14T08:31:12.065Z,2.14
2023-04-14T08:33:40.550Z,1.99
2023-04-14T08:36:07.685Z,1.89
2023-04-14T08:38:36.682Z,1.68
2023-04-14T08:41:07.277Z,1.75
2023-04-14T08:43:34.389Z,1.93
2023-04-14T08:46:01.692Z,1.95
2023-04-14T08:48:30.377Z,2.01
2023-04-14T08:51:06.624Z,1.96
2023-04-14T08:53:34.690Z,2.01
2023-04-14T08:56:03.953Z,2.05
2023-04-14T08:58:31.445Z,2.09
2023-04-14T09:00:59.384Z,2.11
2023-04-14T09:03:26.673Z,2.18
2023-04-14T09:05:53.762Z,2.31
2023-04-14T09:08:22.369Z,2.29
2023-04-14T09:10:50.363Z,2.32
2023-04-14T09:13:18.285Z,2.42
2023-04-14T09:15:45.252Z,2.36
2023-04-14T09:18:12.190Z,2.22
2023-04-14T09:20:40.793Z,2.22
2023-04-14T09:23:09.062Z,2.35
2023-04-14T09:25:38.524Z,2.43
2023-04-14T09:28:05.369Z,2.59
2023-04-14T09:30:32.722Z,2.73
2023-04-14T09:32:59.829Z,2.74
2023-04-14T09:35:43.560Z,2.79
2023-04-14T09:38:10.403Z,2.88
2023-04-14T09:40:41.280Z,2.99
2023-04-14T09:43:08.112Z,3.04
2023-04-14T09:45:41.152Z,3.10
2023-04-14T09:48:08.948Z,2.95
2023-04-14T09:50:56.089Z,3.10
2023-04-14T09:53:25.646Z,3.19
2023-04-14T09:55:53.963Z,3.19
2023-04-14T09:58:20.842Z,3.39
2023-04-14T10:00:48.059Z,3.39
2023-04-14T10:03:14.992Z,3.54
2023-04-14T10:05:46.530Z,3.59
2023-04-14T10:08:13.352Z,3.58
2023-04-14T10:10:40.301Z,3.64
2023-04-14T10:13:08.486Z,3.63
2023-04-14T10:15:35.492Z,3.73
2023-04-14T10:18:02.383Z,3.51
2023-04-14T10:20:29.861Z,3.56
2023-04-14T10:22:56.969Z,3.49
2023-04-14T10:25:25.664Z,3.52
2023-04-14T10:27:53.101Z,3.35
2023-04-14T10:30:21.637Z,3.35
2023-04-14T10:32:48.799Z,3.28
2023-04-14T10:35:16.478Z,3.16
2023-04-14T10:37:50.080Z,3.23
2023-04-14T10:40:16.901Z,3.36
2023-04-14T10:43:02.216Z,3.35
2023-04-14T10:45:30.427Z,3.43
2023-04-14T10:47:57.351Z,3.47
2023-04-14T10:50:24.169Z,3.54
2023-04-14T10:52:52.242Z,3.58
2023-04-14T10:55:22.155Z,3.63
2023-04-14T10:57:48.980Z,3.80
2023-04-14T11:00:24.432Z,3.88
2023-04-14T11:02:57.927Z,4.05
2023-04-14T11:05:25.220Z,4.20
2023-04-14T11:07:56.621Z,4.35
2023-04-14T11:10:28.776Z,4.50
2023-04-14T11:15:50.629Z,4.74
2023-04-14T11:18:20.835Z,4.88
2023-04-14T11:20:47.838Z,4.91
2023-04-14T11:23:14.966Z,4.75
2023-04-14T11:39:23.195Z,5.47
2023-04-14T11:41:50.678Z,5.53
2023-04-14T11:44:21.132Z,5.54
2023-04-14T11:46:49.999Z,5.53
2023-04-14T11:49:17.573Z,5.39
2023-04-14T11:51:44.883Z,5.43
2023-04-14T11:54:11.988Z,5.58
2023-04-14T11:56:40.175Z,5.56
2023-04-14T11:59:07.198Z,5.63
2023-04-14T12:01:34.049Z,5.59
2023-04-14T12:04:01.270Z,5.51
2023-04-14T12:06:28.404Z,5.34
2023-04-14T12:08:55.388Z,5.41
2023-04-14T12:11:22.690Z,5.60
2023-04-14T12:13:51.430Z,5.60
2023-04-14T12:16:18.995Z,5.74
2023-04-14T12:18:45.987Z,5.99
2023-04-14T12:21:17.639Z,6.16
2023-04-14T12:23:46.210Z,6.26
2023-04-14T12:26:13.056Z,6.26
2023-04-14T12:28:40.132Z,6.23
2023-04-14T12:31:09.122Z,6.24
2023-04-14T12:33:36.026Z,6.30
2023-04-14T12:36:04.934Z,6.34
2023-04-14T12:38:32.664Z,6.25
2023-04-14T12:40:59.622Z,6.31
2023-04-14T12:43:31.255Z,6.22
2023-04-14T12:45:58.719Z,6.23
2023-04-14T12:48:40.426Z,6.18
2023-04-14T12:51:09.723Z,6.10
2023-04-14T12:53:38.211Z,6.03
2023-04-14T12:56:09.148Z,6.04
2023-04-14T12:58:37.051Z,6.03
2023-04-14T13:01:05.260Z,5.93
2023-04-14T13:03:47.493Z,5.88
2023-04-14T13:06:16.053Z,6.02
2023-04-14T13:08:43.583Z,6.02
2023-04-14T13:11:10.851Z,5.83
2023-04-14T13:13:37.739Z,5.97
2023-04-14T13:16:14.550Z,5.90
2023-04-14T13:18:43.131Z,5.96
2023-04-14T13:21:11.572Z,6.08
2023-04-14T13:23:38.607Z,6.17
2023-04-14T13:26:05.500Z,5.97
2023-04-14T13:28:32.341Z,6.08
2023-04-14T13:30:59.101Z,6.16
2023-04-14T13:33:26.033Z,6.12
2023-04-14T13:35:53.000Z,6.26
2023-04-14T13:38:21.134Z,6.27
2023-04-14T13:40:48.327Z,6.18
2023-04-14T13:43:17.004Z,6.24
2023-04-14T13:45:43.988Z,6.26
2023-04-14T13:48:10.785Z,6.42
2023-04-14T13:50:37.571Z,6.28
2023-04-14T13:53:04.460Z,6.29
2023-04-14T13:55:35.720Z,6.31
2023-04-14T13:58:02.613Z,6.49
2023-04-14T14:00:29.427Z,6.58
2023-04-14T14:02:56.444Z,6.55
2023-04-14T14:05:23.698Z,6.58
2023-04-14T14:07:50.416Z,6.60
2023-04-14T14:10:17.373Z,6.56
2023-04-14T14:12:45.626Z,6.64
2023-04-14T14:15:12.384Z,6.73
2023-04-14T14:17:39.377Z,6.36
2023-04-14T14:20:08.069Z,6.16
2023-04-14T14:22:35.221Z,6.31
2023-04-14T14:25:17.686Z,6.36
2023-04-14T14:27:48.367Z,6.17
2023-04-14T14:30:15.208Z,6.24
2023-04-14T14:32:41.991Z,6.03
2023-04-14T14:35:09.785Z,5.73
2023-04-14T14:37:36.672Z,5.57
2023-04-14T14:40:04.254Z,5.52
2023-04-14T14:42:31.060Z,5.49
2023-04-14T14:44:59.148Z,5.46
2023-04-14T14:47:28.834Z,5.26
2023-04-14T14:50:00.355Z,5.22
2023-04-14T14:52:29.769Z,5.28
2023-04-14T14:54:56.579Z,5.26
2023-04-14T14:57:23.355Z,5.22
2023-04-14T14:59:50.152Z,5.15
2023-04-14T15:02:20.570Z,5.15
2023-04-14T15:04:47.480Z,5.07
2023-04-14T15:07:14.376Z,4.90
2023-04-14T15:09:41.599Z,4.94
2023-04-14T15:12:08.424Z,4.80
2023-04-14T15:14:35.255Z,4.86
2023-04-14T15:17:02.030Z,4.77
2023-04-14T15:19:31.388Z,4.75
2023-04-14T15:21:58.624Z,4.81
2023-04-14T15:24:25.346Z,4.78
2023-04-14T15:26:52.134Z,4.75
2023-04-14T15:29:19.060Z,4.76
2023-04-14T15:31:45.888Z,4.64
2023-04-14T15:34:12.602Z,4.66
2023-04-14T15:36:40.710Z,4.67
2023-04-14T15:39:07.553Z,4.60
2023-04-14T15:41:34.511Z,4.43
2023-04-14T15:44:01.374Z,4.43
2023-04-14T15:46:28.721Z,4.37
2023-04-14T15:48:55.808Z,4.31
2023-04-14T15:51:22.618Z,4.13
2023-04-14T15:53:51.605Z,4.02
2023-04-14T15:56:18.753Z,3.93
2023-04-14T15:58:45.541Z,3.72
2023-04-14T16:01:12.434Z,3.69
2023-04-14T16:03:39.310Z,3.64
2023-04-14T16:06:06.099Z,3.61
2023-04-14T16:08:33.025Z,3.53
2023-04-14T16:11:01.201Z,3.47
2023-04-14T16:13:28.030Z,3.38
2023-04-14T16:15:54.929Z,3.32
2023-04-14T16:18:21.849Z,3.34
2023-04-14T16:20:48.678Z,3.29
2023-04-14T16:23:15.510Z,3.23
2023-04-14T16:25:42.247Z,3.20
2023-04-14T16:28:10.354Z,3.13
2023-04-14T16:30:37.827Z,3.13
2023-04-14T16:33:05.476Z,3.17
2023-04-14T16:35:34.292Z,3.13
2023-04-14T16:38:01.039Z,2.90
2023-04-14T16:40:27.976Z,2.83
2023-04-14T16:42:54.706Z,2.88
2023-04-14T16:45:22.848Z,2.82
2023-04-14T16:47:49.676Z,2.67
2023-04-14T16:50:16.593Z,2.53
2023-04-14T16:52:43.334Z,2.43
2023-04-14T16:55:10.825Z,2.34
2023-04-14T16:57:37.520Z,2.17
2023-04-14T17:00:05.328Z,1.91
2023-04-14T17:02:34.568Z,1.94
2023-04-14T17:05:02.341Z,1.77
2023-04-14T17:07:29.242Z,1.70
2023-04-14T17:09:55.977Z,1.76
2023-04-14T17:12:22.712Z,1.72
2023-04-14T17:14:49.644Z,1.67
2023-04-14T17:17:16.425Z,1.65
2023-04-14T17:19:44.627Z,1.57
2023-04-14T17:22:11.428Z,1.61
2023-04-14T17:24:38.162Z,1.61
2023-04-14T17:27:04.989Z,1.54
2023-04-14T17:29:31.744Z,1.48
2023-04-14T17:31:58.598Z,1.46
2023-04-14T17:34:25.423Z,1.45
2023-04-14T17:36:54.121Z,1.44
2023-04-14T17:39:20.945Z,1.37
2023-04-14T17:41:47.751Z,1.34
2023-04-14T17:44:14.557Z,1.26
2023-04-14T17:46:41.595Z,1.25
2023-04-14T17:49:08.921Z,1.24
2023-04-14T17:51:36.082Z,1.19
2023-04-14T17:54:04.871Z,1.19
2023-04-14T17:56:31.771Z,1.16
2023-04-14T17:58:58.891Z,1.14
2023-04-14T18:01:25.667Z,1.15
2023-04-14T18:03:52.518Z,1.12
2023-04-14T18:06:19.650Z,1.20
2023-04-14T18:08:46.591Z,1.20
2023-04-14T18:11:14.929Z,1.16
2023-04-14T18:13:41.680Z,1.18
2023-04-14T18:16:10.014Z,1.18
2023-04-14T18:18:37.879Z,1.14
2023-04-14T18:21:04.826Z,1.09
2023-04-14T18:23:31.593Z,1.17
2023-04-14T18:28:30.367Z,1.18
2023-04-14T18:30:57.288Z,1.10
2023-04-14T18:33:24.284Z,1.08
2023-04-14T18:35:51.263Z,1.09
2023-04-14T18:38:18.813Z,1.09
2023-04-14T18:40:46.131Z,1.09
2023-04-14T18:43:12.957Z,1.09
2023-04-14T18:45:44.782Z,1.02
2023-04-14T18:48:12.071Z,1.03
2023-04-14T18:50:40.944Z,1.03
2023-04-14T18:53:07.981Z,1.02
2023-04-14T18:55:38.328Z,1.04
2023-04-14T18:58:14.017Z,1.04
2023-04-14T19:00:45.655Z,1.04
2023-04-14T19:03:14.009Z,1.01
2023-04-14T19:05:41.066Z,0.98
2023-04-14T19:08:07.959Z,0.95
2023-04-14T19:10:34.847Z,0.95
2023-04-14T19:13:01.653Z,1.02
2023-04-14T19:15:28.450Z,1.02
2023-04-14T19:17:56.597Z,1.01
2023-04-14T19:20:23.753Z,1.00
2023-04-14T19:22:50.694Z,0.97
2023-04-14T19:25:17.436Z,0.92
2023-04-14T19:27:44.257Z,0.88
2023-04-14T19:30:12.105Z,0.90
2023-04-14T19:32:39.131Z,0.95
2023-04-14T19:35:08.994Z,0.99
2023-04-14T19:37:36.367Z,0.98
2023-04-14T19:40:03.922Z,1.01
2023-04-14T19:42:30.738Z,0.97
2023-04-14T19:44:57.707Z,0.88
2023-04-14T19:47:24.557Z,0.75
2023-04-14T19:49:51.347Z,0.83
2023-04-14T19:52:19.580Z,0.86
2023-04-14T19:54:46.342Z,0.87
2023-04-14T19:57:13.179Z,0.87
2023-04-14T19:59:40.104Z,0.86
2023-04-14T20:02:07.350Z,0.86
2023-04-14T20:04:34.298Z,0.77
2023-04-14T20:07:01.113Z,0.76
2023-04-14T20:09:29.284Z,0.73
2023-04-14T20:11:56.254Z,0.92
2023-04-14T20:14:23.077Z,0.97
2023-04-14T20:16:49.971Z,1.02
2023-04-14T20:19:16.720Z,1.04
2023-04-14T20:21:43.463Z,1.02
2023-04-14T20:24:10.226Z,1.00
2023-04-14T20:26:38.345Z,1.04
2023-04-14T20:29:05.143Z,1.05
2023-04-14T20:31:31.939Z,1.06
2023-04-14T20:33:58.730Z,1.08
2023-04-14T20:36:25.536Z,1.05
2023-04-14T20:38:52.313Z,1.03
2023-04-14T20:41:19.113Z,0.98
2023-04-14T20:43:47.241Z,0.96
2023-04-14T20:46:14.006Z,0.94
2023-04-14T20:48:40.782Z,0.91
2023-04-14T20:51:07.500Z,0.89
2023-04-14T20:53:34.397Z,0.90
2023-04-14T20:56:01.233Z,0.90
2023-04-14T20:58:28.050Z,0.87
2023-04-14T21:00:56.195Z,0.86
2023-04-14T21:03:23.230Z,0.87
2023-04-14T21:05:50.198Z,0.86
2023-04-14T21:08:17.754Z,0.87
2023-04-14T21:11:02.116Z,0.90
2023-04-14T21:15:30.428Z,0.80
2023-04-14T21:16:19.665Z,0.86
2023-04-14T21:18:46.458Z,0.85
2023-04-14T21:21:13.244Z,0.91
2023-04-14T21:23:40.049Z,1.03
2023-04-14T21:26:06.912Z,1.00
2023-04-14T21:28:33.754Z,1.07
2023-04-14T21:31:00.759Z,0.98
2023-04-14T21:33:29.001Z,1.02
2023-04-14T21:35:55.855Z,0.97
2023-04-14T21:38:22.695Z,0.96
2023-04-14T21:40:49.437Z,1.01
2023-04-14T21:43:16.279Z,1.00
2023-04-14T21:45:43.219Z,1.00
2023-04-14T21:48:10.007Z,0.92
2023-04-14T21:50:38.248Z,0.98
2023-04-14T21:53:05.058Z,0.88
2023-04-14T21:55:31.947Z,0.93
2023-04-14T21:58:01.632Z,0.92
2023-04-14T22:00:28.426Z,0.93
2023-04-14T22:02:55.405Z,0.95
2023-04-14T22:05:22.761Z,0.91
2023-04-14T22:07:51.406Z,0.92
2023-04-14T22:10:18.205Z,0.86
2023-04-14T22:12:45.163Z,0.85
2023-04-14T22:15:12.024Z,0.89
2023-04-14T22:17:39.122Z,0.92
2023-04-14T22:20:07.046Z,0.98
2023-04-14T22:22:33.818Z,0.93
2023-04-14T22:25:02.962Z,0.99
2023-04-14T22:27:29.659Z,0.99
2023-04-14T22:29:56.446Z,1.00
2023-04-14T22:32:23.257Z,0.98
2023-04-14T22:34:49.999Z,1.04
2023-04-14T22:37:17.048Z,1.09
2023-04-14T22:39:43.812Z,1.03
2023-04-14T22:42:12.043Z,1.06
2023-04-14T22:44:38.824Z,1.12
2023-04-14T22:47:05.735Z,1.14
2023-04-14T22:49:32.495Z,1.19
2023-04-14T22:51:59.401Z,1.17
2023-04-14T22:54:26.176Z,1.11
2023-04-14T22:56:52.957Z,1.05
2023-04-14T22:59:21.152Z,1.03
2023-04-14T23:01:48.064Z,0.99
2023-04-14T23:04:15.084Z,0.96
2023-04-14T23:06:42.123Z,0.99
2023-04-14T23:09:08.895Z,1.13
2023-04-14T23:11:35.654Z,1.11
2023-04-14T23:14:02.500Z,1.10
2023-04-14T23:16:31.388Z,1.05
2023-04-14T23:18:58.197Z,1.08
2023-04-14T23:21:25.056Z,1.03
2023-04-14T23:23:51.810Z,0.93
2023-04-14T23:26:19.081Z,0.86
2023-04-14T23:28:45.814Z,0.93
2023-04-14T23:31:12.815Z,0.96
2023-04-14T23:33:41.069Z,0.95
2023-04-14T23:36:08.260Z,1.01
2023-04-14T23:38:35.133Z,1.07
2023-04-14T23:41:02.257Z,1.13
2023-04-14T23:43:29.173Z,1.17
2023-04-14T23:45:56.377Z,1.15
2023-04-14T23:48:23.185Z,1.22
2023-04-14T23:50:59.121Z,1.21
2023-04-14T23:53:32.653Z,1.15
2023-04-14T23:55:59.575Z,1.16
2023-04-14T23:58:29.849Z,1.07
